createdAt,value
2019-01-14T00:03:20.168Z,13.65
2019-01-14T00:08:27.262Z,13.87
2019-01-14T00:13:36.812Z,14.47
2019-01-14T00:18:44.832Z,17.07
2019-01-14T00:23:50.608Z,13.27
2019-01-14T00:28:59.296Z,13.87
2019-01-14T00:34:13.405Z,17.23
2019-01-14T00:39:22.906Z,17.67
2019-01-14T00:44:32.378Z,12.17
2019-01-14T00:49:40.748Z,16.37
2019-01-14T00:54:48.077Z,16.17
2019-01-14T00:59:55.112Z,19.07
2019-01-14T01:05:02.488Z,18.30
2019-01-14T01:10:09.219Z,22.50
2019-01-14T01:15:19.337Z,14.00
2019-01-14T01:20:28.069Z,15.47
2019-01-14T01:25:33.749Z,14.50
2019-01-14T01:30:42.063Z,20.63
2019-01-14T01:35:52.911Z,15.10
2019-01-14T01:41:02.288Z,14.90
2019-01-14T01:46:09.102Z,14.63
2019-01-14T01:51:18.581Z,14.00
2019-01-14T01:56:26.479Z,15.90
2019-01-14T02:01:36.826Z,17.13
2019-01-14T02:06:42.078Z,9.40
2019-01-14T02:12:00.223Z,11.63
2019-01-14T02:17:08.544Z,9.70
2019-01-14T02:22:15.691Z,10.80
2019-01-14T02:27:25.348Z,12.30
2019-01-14T02:32:35.458Z,12.97
2019-01-14T02:37:42.959Z,10.60
2019-01-14T02:42:53.597Z,11.00
2019-01-14T02:48:04.776Z,9.00
2019-01-14T02:53:13.450Z,10.80
2019-01-14T02:58:23.537Z,10.30
2019-01-14T03:03:29.741Z,7.97
2019-01-14T03:08:37.617Z,12.13
2019-01-14T03:13:46.855Z,6.80
2019-01-14T03:18:56.448Z,11.50
2019-01-14T03:24:02.448Z,9.77
2019-01-14T03:29:11.271Z,9.53
2019-01-14T03:34:22.899Z,14.87
2019-01-14T03:39:31.055Z,10.43
2019-01-14T03:44:37.498Z,9.20
2019-01-14T03:49:44.603Z,9.17
2019-01-14T03:54:51.043Z,11.77
2019-01-14T03:59:58.436Z,8.97
2019-01-14T04:05:26.860Z,12.80
2019-01-14T04:10:35.561Z,9.30
2019-01-14T04:15:44.587Z,10.40
2019-01-14T04:20:55.358Z,12.97
2019-01-14T04:26:04.921Z,13.23
2019-01-14T04:31:14.022Z,9.43
2019-01-14T04:36:21.867Z,10.30
2019-01-14T04:41:31.397Z,8.00
2019-01-14T04:46:43.047Z,8.80
2019-01-14T04:51:51.902Z,14.50
2019-01-14T04:57:01.484Z,8.63
2019-01-14T05:02:09.834Z,8.70
2019-01-14T05:07:20.779Z,9.80
2019-01-14T05:13:41.988Z,6.80
2019-01-14T05:18:51.488Z,6.57
2019-01-14T05:24:01.065Z,6.60
2019-01-14T05:29:09.950Z,6.53
2019-01-14T05:34:20.397Z,5.23
2019-01-14T05:39:27.710Z,5.67
2019-01-14T05:44:34.733Z,7.60
2019-01-14T05:49:44.387Z,12.13
2019-01-14T05:54:53.090Z,3.53
2019-01-14T06:00:00.277Z,6.58
2019-01-14T06:05:07.167Z,11.33
2019-01-14T06:10:18.462Z,11.18
2019-01-14T06:15:29.092Z,10.67
2019-01-14T06:20:41.313Z,9.17
2019-01-14T06:25:50.481Z,7.83
2019-01-14T06:30:58.630Z,7.23
2019-01-14T06:36:06.648Z,5.77
2019-01-14T06:41:16.462Z,8.70
2019-01-14T06:46:24.929Z,9.35
2019-01-14T06:51:32.863Z,16.93
2019-01-14T06:56:41.185Z,16.07
2019-01-14T07:01:50.215Z,12.93
2019-01-14T07:06:57.542Z,16.50
2019-01-14T07:12:07.271Z,12.30
2019-01-14T07:17:15.542Z,17.90
2019-01-14T07:22:26.722Z,15.00
2019-01-14T07:27:33.380Z,15.90
2019-01-14T07:32:44.775Z,17.83
2019-01-14T07:37:51.398Z,13.57
2019-01-14T07:42:59.980Z,15.83
2019-01-14T07:48:09.890Z,11.78
2019-01-14T07:53:20.385Z,10.78
2019-01-14T07:58:28.137Z,7.20
2019-01-14T08:03:36.797Z,7.80
2019-01-14T08:08:44.762Z,7.40
2019-01-14T08:13:54.343Z,12.60
2019-01-14T08:19:02.656Z,13.27
2019-01-14T08:24:10.881Z,12.00
2019-01-14T08:29:19.227Z,9.13
2019-01-14T08:34:27.432Z,11.93
2019-01-14T08:39:36.998Z,7.40
2019-01-14T08:44:45.500Z,9.87
2019-01-14T08:49:55.504Z,10.50
2019-01-14T08:55:04.260Z,9.63
2019-01-14T09:00:16.493Z,8.93
2019-01-14T09:05:22.973Z,16.00
2019-01-14T09:10:33.922Z,18.60
2019-01-14T09:15:41.312Z,10.60
2019-01-14T09:20:53.863Z,9.80
2019-01-14T09:26:10.599Z,8.40
2019-01-14T09:31:22.307Z,8.45
2019-01-14T09:36:34.004Z,9.97
2019-01-14T09:41:51.769Z,6.77
2019-01-14T09:47:05.380Z,6.37
2019-01-14T09:52:17.990Z,8.00
2019-01-14T09:57:31.494Z,9.33
2019-01-14T10:02:40.471Z,6.03
2019-01-14T10:07:45.851Z,6.13
2019-01-14T10:12:54.817Z,7.30
2019-01-14T10:18:10.197Z,12.23
2019-01-14T10:23:22.791Z,5.95
2019-01-14T10:28:31.203Z,7.93
2019-01-14T10:33:40.995Z,8.33
2019-01-14T10:38:51.086Z,4.35
2019-01-14T10:44:00.924Z,3.97
2019-01-14T10:49:17.164Z,4.40
2019-01-14T10:54:32.803Z,3.90
2019-01-14T10:59:44.354Z,4.70
2019-01-14T11:05:00.035Z,5.50
2019-01-14T11:10:13.812Z,7.92
2019-01-14T11:15:23.189Z,3.70
2019-01-14T11:20:38.660Z,7.22
2019-01-14T11:25:47.705Z,6.72
2019-01-14T11:30:57.958Z,8.60
2019-01-14T11:36:07.809Z,6.97
2019-01-14T11:41:18.960Z,6.72
2019-01-14T11:46:27.803Z,6.90
2019-01-14T11:51:43.537Z,9.93
2019-01-14T11:56:52.300Z,9.23
2019-01-14T12:02:06.190Z,7.17
2019-01-14T12:07:18.813Z,5.85
2019-01-14T12:12:29.573Z,4.97
2019-01-14T12:17:40.307Z,5.58
2019-01-14T12:22:50.209Z,4.47
2019-01-14T12:28:01.936Z,4.72
2019-01-14T12:33:16.303Z,7.80
2019-01-14T12:38:27.251Z,4.37
2019-01-14T12:43:39.140Z,5.37
2019-01-14T12:48:51.927Z,5.10
2019-01-14T12:54:03.761Z,6.80
2019-01-14T12:59:15.436Z,6.63
2019-01-14T13:04:28.140Z,5.28
2019-01-14T13:09:42.008Z,7.17
2019-01-14T13:14:53.367Z,5.90
2019-01-14T13:20:09.133Z,4.90
2019-01-14T13:25:20.641Z,3.83
2019-01-14T13:30:36.388Z,3.10
2019-01-14T13:35:47.133Z,2.97
2019-01-14T13:41:00.003Z,4.55
2019-01-14T13:46:09.736Z,2.85
2019-01-14T13:51:17.532Z,5.33
2019-01-14T13:56:26.825Z,6.10
2019-01-14T14:01:35.434Z,6.07
2019-01-14T14:06:48.842Z,4.03
2019-01-14T14:12:00.867Z,3.73
2019-01-14T14:17:09.156Z,5.00
2019-01-14T14:22:15.652Z,7.20
2019-01-14T14:27:32.135Z,7.43
2019-01-14T14:32:50.897Z,5.63
2019-01-14T14:38:02.595Z,7.93
2019-01-14T14:43:17.761Z,7.13
2019-01-14T14:48:32.611Z,5.10
2019-01-14T14:53:43.493Z,7.80
2019-01-14T14:58:51.601Z,6.00
2019-01-14T15:04:01.452Z,5.43
2019-01-14T15:09:15.049Z,6.40
2019-01-14T15:14:27.106Z,5.83
2019-01-14T15:19:37.797Z,6.53
2019-01-14T15:24:48.752Z,11.50
2019-01-14T15:29:59.805Z,8.37
2019-01-14T15:35:09.550Z,6.20
2019-01-14T15:40:21.474Z,7.70
2019-01-14T15:45:30.502Z,8.00
2019-01-14T15:50:42.371Z,7.63
2019-01-14T15:55:49.741Z,5.57
2019-01-14T16:01:03.403Z,8.77
2019-01-14T16:06:10.426Z,9.03
2019-01-14T16:11:17.659Z,12.00
2019-01-14T16:16:27.529Z,12.88
2019-01-14T16:21:42.880Z,12.77
2019-01-14T16:26:53.603Z,6.23
2019-01-14T16:32:04.716Z,4.50
2019-01-14T16:37:13.698Z,4.80
2019-01-14T16:42:27.240Z,4.33
2019-01-14T16:47:38.877Z,4.10
2019-01-14T16:52:58.722Z,3.67
2019-01-14T16:58:09.735Z,3.43
2019-01-14T17:03:29.267Z,5.07
2019-01-14T17:08:40.870Z,6.57
2019-01-14T17:13:47.274Z,5.67
2019-01-14T17:18:55.442Z,4.53
2019-01-14T17:24:04.788Z,8.63
2019-01-14T17:29:14.316Z,6.07
2019-01-14T17:34:26.896Z,7.80
2019-01-14T17:39:42.257Z,4.77
2019-01-14T17:44:56.626Z,4.57
2019-01-14T17:50:06.655Z,3.33
2019-01-14T17:55:14.544Z,9.58
2019-01-14T18:00:29.351Z,8.03
2019-01-14T18:05:42.258Z,8.10
2019-01-14T18:10:53.256Z,6.77
2019-01-14T18:16:04.291Z,8.07
2019-01-14T18:21:14.225Z,8.63
2019-01-14T18:26:26.346Z,6.57
2019-01-14T18:31:39.883Z,5.87
2019-01-14T18:36:48.485Z,7.30
2019-01-14T18:41:56.461Z,12.93
2019-01-14T18:47:04.548Z,8.17
2019-01-14T18:52:12.122Z,6.63
2019-01-14T18:57:23.682Z,9.63
2019-01-14T19:02:37.225Z,8.70
2019-01-14T19:07:50.315Z,7.13
2019-01-14T19:12:57.518Z,7.83
2019-01-14T19:18:07.431Z,5.05
2019-01-14T19:23:17.699Z,8.43
2019-01-14T19:28:29.492Z,7.03
2019-01-14T19:33:40.312Z,5.13
2019-01-14T19:38:53.554Z,8.77
2019-01-14T19:44:04.771Z,6.73
2019-01-14T19:49:19.785Z,8.53
2019-01-14T19:54:31.530Z,13.63
2019-01-14T19:59:41.473Z,5.73
2019-01-14T20:04:52.432Z,9.57
2019-01-14T20:10:01.664Z,5.33
2019-01-14T20:15:12.371Z,10.23
2019-01-14T20:20:27.025Z,7.30
2019-01-14T20:25:36.382Z,10.73
2019-01-14T20:30:48.041Z,9.37
2019-01-14T20:36:00.713Z,9.50
2019-01-14T20:41:17.575Z,10.43
2019-01-14T20:46:26.393Z,7.42
2019-01-14T20:51:37.476Z,8.37
2019-01-14T20:56:50.026Z,7.83
2019-01-14T21:02:04.461Z,7.73
2019-01-14T21:07:16.203Z,7.37
2019-01-14T21:12:33.411Z,7.63
2019-01-14T21:17:50.540Z,6.30
2019-01-14T21:23:01.281Z,9.97
2019-01-14T21:28:09.373Z,6.70
2019-01-14T21:33:17.707Z,10.90
2019-01-14T21:38:32.612Z,8.37
2019-01-14T21:43:44.390Z,12.70
2019-01-14T21:48:57.926Z,9.10
2019-01-14T21:54:13.609Z,9.23
2019-01-14T21:59:23.404Z,7.20
2019-01-14T22:04:36.899Z,12.87
2019-01-14T22:09:44.964Z,11.53
2019-01-14T22:14:55.376Z,12.60
2019-01-14T22:20:07.557Z,7.40
2019-01-14T22:25:15.309Z,9.18
2019-01-14T22:30:32.167Z,7.40
2019-01-14T22:35:44.111Z,8.50
2019-01-14T22:40:54.217Z,6.23
2019-01-14T22:46:05.892Z,11.57
2019-01-14T22:51:17.624Z,9.28
2019-01-14T22:56:33.336Z,9.88
2019-01-14T23:01:51.664Z,9.13
2019-01-14T23:06:59.305Z,10.78
2019-01-14T23:12:11.155Z,13.57
2019-01-14T23:17:23.782Z,10.23
2019-01-14T23:22:32.966Z,9.13
2019-01-14T23:27:44.134Z,8.13
2019-01-14T23:32:59.371Z,10.53
2019-01-14T23:38:14.924Z,8.57
2019-01-14T23:43:28.360Z,12.23
2019-01-14T23:48:42.882Z,11.17
2019-01-14T23:53:58.371Z,9.80
2019-01-14T23:59:07.566Z,8.67
